sensor_id;sensor_type;location;lat;lon;timestamp;temperature;humidity
63219;DHT22;49320;52.512;13.448;2022-12-07T00:01:34;7.00;85.70
63219;DHT22;49320;52.512;13.448;2022-12-07T00:04:06;7.00;85.60
63219;DHT22;49320;52.512;13.448;2022-12-07T00:06:45;7.00;85.60
63219;DHT22;49320;52.512;13.448;2022-12-07T00:09:17;6.90;85.30
63219;DHT22;49320;52.512;13.448;2022-12-07T00:11:44;6.90;85.30
63219;DHT22;49320;52.512;13.448;2022-12-07T00:14:16;6.80;85.20
63219;DHT22;49320;52.512;13.448;2022-12-07T00:16:44;6.90;85.20
63219;DHT22;49320;52.512;13.448;2022-12-07T00:19:13;6.90;84.80
63219;DHT22;49320;52.512;13.448;2022-12-07T00:21:40;6.80;84.40
63219;DHT22;49320;52.512;13.448;2022-12-07T00:24:09;6.80;84.50
63219;DHT22;49320;52.512;13.448;2022-12-07T00:26:39;6.70;84.50
63219;DHT22;49320;52.512;13.448;2022-12-07T00:29:17;6.70;84.70
63219;DHT22;49320;52.512;13.448;2022-12-07T00:31:45;6.70;84.90
63219;DHT22;49320;52.512;13.448;2022-12-07T00:34:16;6.70;84.90
63219;DHT22;49320;52.512;13.448;2022-12-07T00:36:44;6.70;84.80
63219;DHT22;49320;52.512;13.448;2022-12-07T00:39:11;6.70;84.80
63219;DHT22;49320;52.512;13.448;2022-12-07T00:41:38;6.70;84.50
63219;DHT22;49320;52.512;13.448;2022-12-07T00:44:05;6.70;84.50
63219;DHT22;49320;52.512;13.448;2022-12-07T00:46:32;6.70;84.10
63219;DHT22;49320;52.512;13.448;2022-12-07T00:48:59;6.70;83.90
63219;DHT22;49320;52.512;13.448;2022-12-07T00:51:26;6.60;83.70
63219;DHT22;49320;52.512;13.448;2022-12-07T00:53:52;6.50;83.50
63219;DHT22;49320;52.512;13.448;2022-12-07T00:56:25;6.60;83.70
63219;DHT22;49320;52.512;13.448;2022-12-07T00:58:54;6.60;83.20
63219;DHT22;49320;52.512;13.448;2022-12-07T01:01:24;6.60;82.20
63219;DHT22;49320;52.512;13.448;2022-12-07T01:03:53;6.60;83.40
63219;DHT22;49320;52.512;13.448;2022-12-07T01:06:21;6.60;82.60
63219;DHT22;49320;52.512;13.448;2022-12-07T01:08:49;6.50;82.40
63219;DHT22;49320;52.512;13.448;2022-12-07T01:11:18;6.50;82.40
63219;DHT22;49320;52.512;13.448;2022-12-07T01:13:53;6.40;82.30
63219;DHT22;49320;52.512;13.448;2022-12-07T01:16:23;6.30;82.10
63219;DHT22;49320;52.512;13.448;2022-12-07T01:18:53;6.40;82.10
63219;DHT22;49320;52.512;13.448;2022-12-07T01:21:29;6.30;81.90
63219;DHT22;49320;52.512;13.448;2022-12-07T01:24:01;6.30;81.90
63219;DHT22;49320;52.512;13.448;2022-12-07T01:26:29;6.30;82.40
63219;DHT22;49320;52.512;13.448;2022-12-07T01:28:56;6.30;82.70
63219;DHT22;49320;52.512;13.448;2022-12-07T01:31:26;6.30;83.00
63219;DHT22;49320;52.512;13.448;2022-12-07T01:33:56;6.30;82.80
63219;DHT22;49320;52.512;13.448;2022-12-07T01:36:26;6.30;82.40
63219;DHT22;49320;52.512;13.448;2022-12-07T01:39:02;6.30;82.10
63219;DHT22;49320;52.512;13.448;2022-12-07T01:41:33;6.30;81.90
63219;DHT22;49320;52.512;13.448;2022-12-07T01:44:20;6.30;81.90
63219;DHT22;49320;52.512;13.448;2022-12-07T01:46:52;6.30;81.50
63219;DHT22;49320;52.512;13.448;2022-12-07T01:52:13;6.30;81.30
63219;DHT22;49320;52.512;13.448;2022-12-07T01:54:47;6.30;81.40
63219;DHT22;49320;52.512;13.448;2022-12-07T01:57:17;6.30;81.60
63219;DHT22;49320;52.512;13.448;2022-12-07T01:59:47;6.20;81.50
63219;DHT22;49320;52.512;13.448;2022-12-07T02:02:20;6.30;81.70
63219;DHT22;49320;52.512;13.448;2022-12-07T02:04:53;6.30;81.90
63219;DHT22;49320;52.512;13.448;2022-12-07T02:07:23;6.40;82.10
63219;DHT22;49320;52.512;13.448;2022-12-07T02:09:50;6.30;82.10
63219;DHT22;49320;52.512;13.448;2022-12-07T02:12:17;6.40;82.40
63219;DHT22;49320;52.512;13.448;2022-12-07T02:14:44;6.40;82.40
63219;DHT22;49320;52.512;13.448;2022-12-07T02:17:20;6.40;82.30
63219;DHT22;49320;52.512;13.448;2022-12-07T02:20:21;6.40;81.80
63219;DHT22;49320;52.512;13.448;2022-12-07T02:29:49;6.50;80.80
63219;DHT22;49320;52.512;13.448;2022-12-07T02:35:48;6.40;80.30
63219;DHT22;49320;52.512;13.448;2022-12-07T02:39:17;6.40;80.60
63219;DHT22;49320;52.512;13.448;2022-12-07T02:41:53;6.40;80.40
63219;DHT22;49320;52.512;13.448;2022-12-07T02:44:27;6.40;80.90
63219;DHT22;49320;52.512;13.448;2022-12-07T02:46:59;6.20;80.80
63219;DHT22;49320;52.512;13.448;2022-12-07T02:49:30;6.40;81.10
63219;DHT22;49320;52.512;13.448;2022-12-07T02:51:58;6.30;81.20
63219;DHT22;49320;52.512;13.448;2022-12-07T02:54:24;6.30;81.20
63219;DHT22;49320;52.512;13.448;2022-12-07T02:57:04;6.30;81.30
63219;DHT22;49320;52.512;13.448;2022-12-07T03:02:50;6.30;81.10
63219;DHT22;49320;52.512;13.448;2022-12-07T03:05:35;6.20;81.30
63219;DHT22;49320;52.512;13.448;2022-12-07T03:08:25;6.20;81.40
63219;DHT22;49320;52.512;13.448;2022-12-07T03:11:08;6.20;81.60
63219;DHT22;49320;52.512;13.448;2022-12-07T03:16:45;6.20;81.80
63219;DHT22;49320;52.512;13.448;2022-12-07T03:19:21;6.20;82.00
63219;DHT22;49320;52.512;13.448;2022-12-07T03:22:00;6.20;82.10
63219;DHT22;49320;52.512;13.448;2022-12-07T03:24:35;6.20;81.90
63219;DHT22;49320;52.512;13.448;2022-12-07T03:27:21;6.20;82.10
63219;DHT22;49320;52.512;13.448;2022-12-07T03:29:59;6.20;82.10
63219;DHT22;49320;52.512;13.448;2022-12-07T03:38:03;6.30;82.40
63219;DHT22;49320;52.512;13.448;2022-12-07T03:40:48;6.30;82.30
63219;DHT22;49320;52.512;13.448;2022-12-07T03:43:19;6.30;82.20
63219;DHT22;49320;52.512;13.448;2022-12-07T03:46:09;6.30;82.30
63219;DHT22;49320;52.512;13.448;2022-12-07T03:49:16;6.30;82.10
63219;DHT22;49320;52.512;13.448;2022-12-07T03:51:56;6.30;82.20
63219;DHT22;49320;52.512;13.448;2022-12-07T03:57:19;6.40;82.50
63219;DHT22;49320;52.512;13.448;2022-12-07T03:59:48;6.40;82.40
63219;DHT22;49320;52.512;13.448;2022-12-07T04:02:15;6.40;82.40
63219;DHT22;49320;52.512;13.448;2022-12-07T04:04:43;6.40;82.40
63219;DHT22;49320;52.512;13.448;2022-12-07T04:07:10;6.40;82.30
63219;DHT22;49320;52.512;13.448;2022-12-07T04:09:37;6.40;82.20
63219;DHT22;49320;52.512;13.448;2022-12-07T04:12:04;6.40;82.30
63219;DHT22;49320;52.512;13.448;2022-12-07T04:14:31;6.40;82.40
63219;DHT22;49320;52.512;13.448;2022-12-07T04:16:58;6.30;82.40
63219;DHT22;49320;52.512;13.448;2022-12-07T04:19:28;6.30;82.50
63219;DHT22;49320;52.512;13.448;2022-12-07T04:21:57;6.30;82.50
63219;DHT22;49320;52.512;13.448;2022-12-07T04:24:24;6.30;82.50
63219;DHT22;49320;52.512;13.448;2022-12-07T04:26:51;6.30;82.60
63219;DHT22;49320;52.512;13.448;2022-12-07T04:29:19;6.30;82.70
63219;DHT22;49320;52.512;13.448;2022-12-07T04:31:46;6.30;82.80
63219;DHT22;49320;52.512;13.448;2022-12-07T04:34:15;6.30;82.90
63219;DHT22;49320;52.512;13.448;2022-12-07T04:36:42;6.20;83.00
63219;DHT22;49320;52.512;13.448;2022-12-07T04:39:22;6.20;83.30
63219;DHT22;49320;52.512;13.448;2022-12-07T04:41:51;6.20;83.40
63219;DHT22;49320;52.512;13.448;2022-12-07T04:44:19;6.20;83.50
63219;DHT22;49320;52.512;13.448;2022-12-07T04:46:47;6.20;83.60
63219;DHT22;49320;52.512;13.448;2022-12-07T04:49:15;6.20;83.70
63219;DHT22;49320;52.512;13.448;2022-12-07T04:51:42;6.30;83.80
63219;DHT22;49320;52.512;13.448;2022-12-07T04:54:10;6.30;83.90
63219;DHT22;49320;52.512;13.448;2022-12-07T04:56:38;6.30;83.90
63219;DHT22;49320;52.512;13.448;2022-12-07T04:59:05;6.20;84.00
63219;DHT22;49320;52.512;13.448;2022-12-07T05:01:32;6.20;84.00
63219;DHT22;49320;52.512;13.448;2022-12-07T05:04:00;6.20;84.10
63219;DHT22;49320;52.512;13.448;2022-12-07T05:06:27;6.20;84.30
63219;DHT22;49320;52.512;13.448;2022-12-07T05:08:53;6.30;84.50
63219;DHT22;49320;52.512;13.448;2022-12-07T05:11:20;6.20;84.40
63219;DHT22;49320;52.512;13.448;2022-12-07T05:14:17;6.30;84.60
63219;DHT22;49320;52.512;13.448;2022-12-07T05:16:48;6.30;84.80
63219;DHT22;49320;52.512;13.448;2022-12-07T05:19:18;6.30;84.80
63219;DHT22;49320;52.512;13.448;2022-12-07T05:21:45;6.30;84.70
63219;DHT22;49320;52.512;13.448;2022-12-07T05:24:13;6.30;84.70
63219;DHT22;49320;52.512;13.448;2022-12-07T05:26:42;6.30;84.80
63219;DHT22;49320;52.512;13.448;2022-12-07T05:29:12;6.30;84.80
63219;DHT22;49320;52.512;13.448;2022-12-07T05:31:40;6.30;85.00
63219;DHT22;49320;52.512;13.448;2022-12-07T05:34:07;6.30;85.10
63219;DHT22;49320;52.512;13.448;2022-12-07T05:36:35;6.40;85.30
63219;DHT22;49320;52.512;13.448;2022-12-07T05:39:02;6.40;85.30
63219;DHT22;49320;52.512;13.448;2022-12-07T05:41:29;6.40;85.40
63219;DHT22;49320;52.512;13.448;2022-12-07T05:44:14;6.40;85.40
63219;DHT22;49320;52.512;13.448;2022-12-07T05:46:41;6.40;85.30
63219;DHT22;49320;52.512;13.448;2022-12-07T05:49:08;6.50;85.40
63219;DHT22;49320;52.512;13.448;2022-12-07T05:51:35;6.50;85.40
63219;DHT22;49320;52.512;13.448;2022-12-07T05:54:02;6.50;85.50
63219;DHT22;49320;52.512;13.448;2022-12-07T05:56:28;6.50;85.60
63219;DHT22;49320;52.512;13.448;2022-12-07T05:58:56;6.50;85.70
63219;DHT22;49320;52.512;13.448;2022-12-07T06:01:41;6.50;85.70
63219;DHT22;49320;52.512;13.448;2022-12-07T06:04:09;6.60;85.70
63219;DHT22;49320;52.512;13.448;2022-12-07T06:06:36;6.60;85.90
63219;DHT22;49320;52.512;13.448;2022-12-07T06:09:03;6.60;86.00
63219;DHT22;49320;52.512;13.448;2022-12-07T06:11:30;6.60;86.10
63219;DHT22;49320;52.512;13.448;2022-12-07T06:14:16;6.70;86.00
63219;DHT22;49320;52.512;13.448;2022-12-07T06:16:43;6.60;86.10
63219;DHT22;49320;52.512;13.448;2022-12-07T06:19:10;6.70;86.20
63219;DHT22;49320;52.512;13.448;2022-12-07T06:21:37;6.80;86.30
63219;DHT22;49320;52.512;13.448;2022-12-07T06:24:04;6.80;86.40
63219;DHT22;49320;52.512;13.448;2022-12-07T06:26:31;6.80;86.50
63219;DHT22;49320;52.512;13.448;2022-12-07T06:28:58;6.90;86.60
63219;DHT22;49320;52.512;13.448;2022-12-07T06:31:25;6.90;86.60
63219;DHT22;49320;52.512;13.448;2022-12-07T06:34:00;7.00;86.50
63219;DHT22;49320;52.512;13.448;2022-12-07T06:36:28;7.00;86.40
63219;DHT22;49320;52.512;13.448;2022-12-07T06:38:55;7.00;86.20
63219;DHT22;49320;52.512;13.448;2022-12-07T06:41:23;7.00;86.20
63219;DHT22;49320;52.512;13.448;2022-12-07T06:43:50;7.10;86.20
63219;DHT22;49320;52.512;13.448;2022-12-07T06:46:22;7.10;85.90
63219;DHT22;49320;52.512;13.448;2022-12-07T06:48:50;7.10;85.90
63219;DHT22;49320;52.512;13.448;2022-12-07T06:51:16;7.10;85.90
63219;DHT22;49320;52.512;13.448;2022-12-07T06:53:43;7.10;86.10
63219;DHT22;49320;52.512;13.448;2022-12-07T06:56:10;7.10;86.10
63219;DHT22;49320;52.512;13.448;2022-12-07T06:58:37;7.10;86.30
63219;DHT22;49320;52.512;13.448;2022-12-07T07:01:09;7.10;86.30
63219;DHT22;49320;52.512;13.448;2022-12-07T07:03:37;7.10;86.30
63219;DHT22;49320;52.512;13.448;2022-12-07T07:06:05;7.20;86.30
63219;DHT22;49320;52.512;13.448;2022-12-07T07:08:34;7.20;86.30
63219;DHT22;49320;52.512;13.448;2022-12-07T07:11:02;7.10;86.50
63219;DHT22;49320;52.512;13.448;2022-12-07T07:13:30;7.20;86.50
63219;DHT22;49320;52.512;13.448;2022-12-07T07:15:57;7.10;86.50
63219;DHT22;49320;52.512;13.448;2022-12-07T07:18:24;7.30;86.70
63219;DHT22;49320;52.512;13.448;2022-12-07T07:20:52;7.20;86.50
63219;DHT22;49320;52.512;13.448;2022-12-07T07:23:20;7.20;87.20
63219;DHT22;49320;52.512;13.448;2022-12-07T07:25:47;7.30;86.60
63219;DHT22;49320;52.512;13.448;2022-12-07T07:28:15;7.40;86.60
63219;DHT22;49320;52.512;13.448;2022-12-07T07:30:42;7.40;86.70
63219;DHT22;49320;52.512;13.448;2022-12-07T07:33:10;7.50;86.50
63219;DHT22;49320;52.512;13.448;2022-12-07T07:35:37;7.50;86.50
63219;DHT22;49320;52.512;13.448;2022-12-07T07:38:06;7.50;86.50
63219;DHT22;49320;52.512;13.448;2022-12-07T07:40:33;7.50;86.40
63219;DHT22;49320;52.512;13.448;2022-12-07T07:43:00;7.60;86.30
63219;DHT22;49320;52.512;13.448;2022-12-07T07:45:28;7.50;86.00
63219;DHT22;49320;52.512;13.448;2022-12-07T07:47:54;7.60;85.90
63219;DHT22;49320;52.512;13.448;2022-12-07T07:50:22;7.60;85.70
63219;DHT22;49320;52.512;13.448;2022-12-07T07:52:50;7.70;85.60
63219;DHT22;49320;52.512;13.448;2022-12-07T07:55:18;7.60;85.50
63219;DHT22;49320;52.512;13.448;2022-12-07T07:57:44;7.60;85.60
63219;DHT22;49320;52.512;13.448;2022-12-07T08:00:20;7.60;85.30
63219;DHT22;49320;52.512;13.448;2022-12-07T08:02:47;7.60;85.20
63219;DHT22;49320;52.512;13.448;2022-12-07T08:05:14;7.70;85.30
63219;DHT22;49320;52.512;13.448;2022-12-07T08:07:41;7.70;85.00
63219;DHT22;49320;52.512;13.448;2022-12-07T08:10:10;7.70;84.70
63219;DHT22;49320;52.512;13.448;2022-12-07T08:12:40;7.70;84.10
63219;DHT22;49320;52.512;13.448;2022-12-07T08:15:28;7.70;84.30
63219;DHT22;49320;52.512;13.448;2022-12-07T08:17:57;7.70;84.20
63219;DHT22;49320;52.512;13.448;2022-12-07T08:20:24;7.70;84.20
63219;DHT22;49320;52.512;13.448;2022-12-07T08:22:51;7.60;84.30
63219;DHT22;49320;52.512;13.448;2022-12-07T08:25:18;7.70;84.20
63219;DHT22;49320;52.512;13.448;2022-12-07T08:27:45;7.70;84.10
63219;DHT22;49320;52.512;13.448;2022-12-07T08:30:12;7.70;83.90
63219;DHT22;49320;52.512;13.448;2022-12-07T08:32:40;7.70;83.50
63219;DHT22;49320;52.512;13.448;2022-12-07T08:35:07;7.70;83.50
63219;DHT22;49320;52.512;13.448;2022-12-07T08:37:35;7.70;83.70
63219;DHT22;49320;52.512;13.448;2022-12-07T08:40:04;7.70;83.50
63219;DHT22;49320;52.512;13.448;2022-12-07T08:42:33;7.70;83.50
63219;DHT22;49320;52.512;13.448;2022-12-07T08:45:12;7.70;83.50
63219;DHT22;49320;52.512;13.448;2022-12-07T08:47:50;7.70;83.30
63219;DHT22;49320;52.512;13.448;2022-12-07T08:50:21;7.70;82.00
63219;DHT22;49320;52.512;13.448;2022-12-07T08:52:53;7.70;82.00
63219;DHT22;49320;52.512;13.448;2022-12-07T08:55:23;7.70;82.00
63219;DHT22;49320;52.512;13.448;2022-12-07T08:57:50;7.70;81.10
63219;DHT22;49320;52.512;13.448;2022-12-07T09:00:18;7.60;81.00
63219;DHT22;49320;52.512;13.448;2022-12-07T09:02:45;7.70;80.50
63219;DHT22;49320;52.512;13.448;2022-12-07T09:05:13;7.70;80.90
63219;DHT22;49320;52.512;13.448;2022-12-07T09:07:45;7.70;80.80
63219;DHT22;49320;52.512;13.448;2022-12-07T09:10:15;7.70;80.50
63219;DHT22;49320;52.512;13.448;2022-12-07T09:12:41;7.70;79.80
63219;DHT22;49320;52.512;13.448;2022-12-07T09:15:08;7.70;79.20
63219;DHT22;49320;52.512;13.448;2022-12-07T09:17:35;7.70;77.80
63219;DHT22;49320;52.512;13.448;2022-12-07T09:20:04;7.70;77.20
63219;DHT22;49320;52.512;13.448;2022-12-07T09:22:32;7.70;76.60
63219;DHT22;49320;52.512;13.448;2022-12-07T09:24:59;7.60;77.10
63219;DHT22;49320;52.512;13.448;2022-12-07T09:27:27;7.70;76.80
63219;DHT22;49320;52.512;13.448;2022-12-07T09:29:54;7.70;76.90
63219;DHT22;49320;52.512;13.448;2022-12-07T09:32:21;7.70;74.70
63219;DHT22;49320;52.512;13.448;2022-12-07T09:34:48;7.60;75.10
63219;DHT22;49320;52.512;13.448;2022-12-07T09:37:15;7.60;75.10
63219;DHT22;49320;52.512;13.448;2022-12-07T09:39:42;7.60;76.00
63219;DHT22;49320;52.512;13.448;2022-12-07T09:45:06;7.60;75.60
63219;DHT22;49320;52.512;13.448;2022-12-07T09:47:38;7.60;75.90
63219;DHT22;49320;52.512;13.448;2022-12-07T09:50:12;7.60;75.80
63219;DHT22;49320;52.512;13.448;2022-12-07T09:52:43;7.50;75.30
63219;DHT22;49320;52.512;13.448;2022-12-07T09:55:29;7.90;75.90
63219;DHT22;49320;52.512;13.448;2022-12-07T09:57:58;7.50;75.00
63219;DHT22;49320;52.512;13.448;2022-12-07T10:00:25;7.50;75.00
63219;DHT22;49320;52.512;13.448;2022-12-07T10:02:58;7.50;74.60
63219;DHT22;49320;52.512;13.448;2022-12-07T10:05:34;7.50;73.60
63219;DHT22;49320;52.512;13.448;2022-12-07T10:08:09;7.50;74.00
63219;DHT22;49320;52.512;13.448;2022-12-07T10:10:38;7.30;75.00
63219;DHT22;49320;52.512;13.448;2022-12-07T10:13:14;7.40;74.00
63219;DHT22;49320;52.512;13.448;2022-12-07T10:15:47;7.30;73.90
63219;DHT22;49320;52.512;13.448;2022-12-07T10:18:31;7.40;74.70
63219;DHT22;49320;52.512;13.448;2022-12-07T10:23:41;7.40;73.60
63219;DHT22;49320;52.512;13.448;2022-12-07T10:26:33;7.30;73.90
63219;DHT22;49320;52.512;13.448;2022-12-07T10:29:29;7.30;73.70
63219;DHT22;49320;52.512;13.448;2022-12-07T10:32:21;7.30;73.20
63219;DHT22;49320;52.512;13.448;2022-12-07T10:35:21;7.20;73.30
63219;DHT22;49320;52.512;13.448;2022-12-07T10:41:07;7.30;73.90
63219;DHT22;49320;52.512;13.448;2022-12-07T10:43:34;7.30;73.40
63219;DHT22;49320;52.512;13.448;2022-12-07T10:49:03;7.20;75.40
63219;DHT22;49320;52.512;13.448;2022-12-07T10:55:26;7.20;74.60
63219;DHT22;49320;52.512;13.448;2022-12-07T11:01:39;7.20;74.60
63219;DHT22;49320;52.512;13.448;2022-12-07T11:04:24;7.20;74.10
63219;DHT22;49320;52.512;13.448;2022-12-07T11:10:43;7.20;74.70
63219;DHT22;49320;52.512;13.448;2022-12-07T11:23:06;7.60;75.60
63219;DHT22;49320;52.512;13.448;2022-12-07T11:25:51;7.30;75.50
63219;DHT22;49320;52.512;13.448;2022-12-07T11:34:56;7.40;75.10
63219;DHT22;49320;52.512;13.448;2022-12-07T11:37:36;7.40;75.40
63219;DHT22;49320;52.512;13.448;2022-12-07T11:40:20;7.40;75.20
63219;DHT22;49320;52.512;13.448;2022-12-07T11:46:12;7.50;75.40
63219;DHT22;49320;52.512;13.448;2022-12-07T11:49:03;7.50;75.70
63219;DHT22;49320;52.512;13.448;2022-12-07T11:51:39;7.50;75.20
63219;DHT22;49320;52.512;13.448;2022-12-07T11:54:21;7.50;75.60
63219;DHT22;49320;52.512;13.448;2022-12-07T11:56:54;7.60;75.70
63219;DHT22;49320;52.512;13.448;2022-12-07T11:59:31;7.50;76.00
63219;DHT22;49320;52.512;13.448;2022-12-07T12:02:28;7.60;76.00
63219;DHT22;49320;52.512;13.448;2022-12-07T12:05:13;7.60;75.80
63219;DHT22;49320;52.512;13.448;2022-12-07T12:07:48;7.60;75.90
63219;DHT22;49320;52.512;13.448;2022-12-07T12:10:58;7.60;75.80
63219;DHT22;49320;52.512;13.448;2022-12-07T12:20:32;7.80;75.60
63219;DHT22;49320;52.512;13.448;2022-12-07T12:23:13;7.90;76.00
63219;DHT22;49320;52.512;13.448;2022-12-07T12:25:58;7.90;76.60
63219;DHT22;49320;52.512;13.448;2022-12-07T12:28:48;7.90;76.50
63219;DHT22;49320;52.512;13.448;2022-12-07T12:34:04;8.10;75.90
63219;DHT22;49320;52.512;13.448;2022-12-07T12:36:51;8.10;76.00
63219;DHT22;49320;52.512;13.448;2022-12-07T12:39:19;8.20;75.70
63219;DHT22;49320;52.512;13.448;2022-12-07T12:46:52;8.30;75.40
63219;DHT22;49320;52.512;13.448;2022-12-07T12:51:50;8.30;75.40
63219;DHT22;49320;52.512;13.448;2022-12-07T12:54:24;8.30;75.20
63219;DHT22;49320;52.512;13.448;2022-12-07T12:57:17;8.30;75.30
63219;DHT22;49320;52.512;13.448;2022-12-07T13:02:37;8.40;75.30
63219;DHT22;49320;52.512;13.448;2022-12-07T13:15:55;8.50;75.40
63219;DHT22;49320;52.512;13.448;2022-12-07T13:18:41;8.50;75.00
63219;DHT22;49320;52.512;13.448;2022-12-07T13:26:23;8.50;74.50
63219;DHT22;49320;52.512;13.448;2022-12-07T13:29:17;8.50;74.70
63219;DHT22;49320;52.512;13.448;2022-12-07T13:31:52;8.50;74.70
63219;DHT22;49320;52.512;13.448;2022-12-07T13:34:39;8.50;75.00
63219;DHT22;49320;52.512;13.448;2022-12-07T13:37:28;8.50;74.90
63219;DHT22;49320;52.512;13.448;2022-12-07T13:40:21;8.50;75.20
63219;DHT22;49320;52.512;13.448;2022-12-07T13:43:04;8.50;74.90
63219;DHT22;49320;52.512;13.448;2022-12-07T13:45:39;8.50;74.80
63219;DHT22;49320;52.512;13.448;2022-12-07T13:48:28;8.50;75.10
63219;DHT22;49320;52.512;13.448;2022-12-07T13:51:00;8.50;74.60
63219;DHT22;49320;52.512;13.448;2022-12-07T13:53:29;8.50;75.00
63219;DHT22;49320;52.512;13.448;2022-12-07T13:55:58;8.50;74.90
63219;DHT22;49320;52.512;13.448;2022-12-07T13:58:30;8.50;74.80
63219;DHT22;49320;52.512;13.448;2022-12-07T14:00:59;8.50;75.20
63219;DHT22;49320;52.512;13.448;2022-12-07T14:03:31;8.50;74.80
63219;DHT22;49320;52.512;13.448;2022-12-07T14:06:12;8.50;74.50
63219;DHT22;49320;52.512;13.448;2022-12-07T14:08:43;8.50;74.50
63219;DHT22;49320;52.512;13.448;2022-12-07T14:11:18;8.50;74.80
63219;DHT22;49320;52.512;13.448;2022-12-07T14:13:51;8.50;74.40
63219;DHT22;49320;52.512;13.448;2022-12-07T14:16:34;8.50;74.50
63219;DHT22;49320;52.512;13.448;2022-12-07T14:19:05;8.60;74.30
63219;DHT22;49320;52.512;13.448;2022-12-07T14:22:33;8.50;74.40
63219;DHT22;49320;52.512;13.448;2022-12-07T14:27:49;8.60;73.80
63219;DHT22;49320;52.512;13.448;2022-12-07T14:30:24;8.50;73.80
63219;DHT22;49320;52.512;13.448;2022-12-07T14:33:04;8.50;74.20
63219;DHT22;49320;52.512;13.448;2022-12-07T14:35:32;8.50;73.90
63219;DHT22;49320;52.512;13.448;2022-12-07T14:37:59;8.40;73.90
63219;DHT22;49320;52.512;13.448;2022-12-07T14:40:28;8.50;74.00
63219;DHT22;49320;52.512;13.448;2022-12-07T14:43:01;8.40;74.20
63219;DHT22;49320;52.512;13.448;2022-12-07T14:45:30;8.40;74.40
63219;DHT22;49320;52.512;13.448;2022-12-07T14:47:57;8.30;74.50
63219;DHT22;49320;52.512;13.448;2022-12-07T14:50:47;8.30;74.50
63219;DHT22;49320;52.512;13.448;2022-12-07T14:53:40;8.30;74.50
63219;DHT22;49320;52.512;13.448;2022-12-07T14:56:15;8.30;74.20
63219;DHT22;49320;52.512;13.448;2022-12-07T14:58:42;8.30;74.50
63219;DHT22;49320;52.512;13.448;2022-12-07T15:01:09;8.30;74.30
63219;DHT22;49320;52.512;13.448;2022-12-07T15:03:35;8.20;74.50
63219;DHT22;49320;52.512;13.448;2022-12-07T15:06:05;8.10;74.70
63219;DHT22;49320;52.512;13.448;2022-12-07T15:08:33;8.10;74.80
63219;DHT22;49320;52.512;13.448;2022-12-07T15:11:00;8.10;74.80
63219;DHT22;49320;52.512;13.448;2022-12-07T15:13:26;8.00;74.80
63219;DHT22;49320;52.512;13.448;2022-12-07T15:16:14;8.00;75.00
63219;DHT22;49320;52.512;13.448;2022-12-07T15:18:45;7.90;75.10
63219;DHT22;49320;52.512;13.448;2022-12-07T15:21:32;7.90;75.30
63219;DHT22;49320;52.512;13.448;2022-12-07T15:23:58;7.80;75.40
63219;DHT22;49320;52.512;13.448;2022-12-07T15:26:25;7.80;75.50
63219;DHT22;49320;52.512;13.448;2022-12-07T15:28:53;7.60;75.30
63219;DHT22;49320;52.512;13.448;2022-12-07T15:31:20;7.70;75.40
63219;DHT22;49320;52.512;13.448;2022-12-07T15:34:07;7.60;75.30
63219;DHT22;49320;52.512;13.448;2022-12-07T15:36:34;7.60;75.40
63219;DHT22;49320;52.512;13.448;2022-12-07T15:39:02;7.60;75.40
63219;DHT22;49320;52.512;13.448;2022-12-07T15:41:45;7.60;75.40
63219;DHT22;49320;52.512;13.448;2022-12-07T15:44:13;7.60;75.50
63219;DHT22;49320;52.512;13.448;2022-12-07T15:46:59;7.50;75.80
63219;DHT22;49320;52.512;13.448;2022-12-07T15:49:27;7.50;75.90
63219;DHT22;49320;52.512;13.448;2022-12-07T15:51:54;7.50;76.00
63219;DHT22;49320;52.512;13.448;2022-12-07T15:54:26;7.60;76.20
63219;DHT22;49320;52.512;13.448;2022-12-07T15:56:55;7.50;76.30
63219;DHT22;49320;52.512;13.448;2022-12-07T15:59:23;7.60;76.50
63219;DHT22;49320;52.512;13.448;2022-12-07T16:01:50;7.50;76.50
63219;DHT22;49320;52.512;13.448;2022-12-07T16:04:17;7.50;76.50
63219;DHT22;49320;52.512;13.448;2022-12-07T16:06:45;7.50;76.50
63219;DHT22;49320;52.512;13.448;2022-12-07T16:09:11;7.50;76.50
63219;DHT22;49320;52.512;13.448;2022-12-07T16:11:38;7.50;76.60
63219;DHT22;49320;52.512;13.448;2022-12-07T16:14:05;7.60;76.60
63219;DHT22;49320;52.512;13.448;2022-12-07T16:16:32;7.60;76.40
63219;DHT22;49320;52.512;13.448;2022-12-07T16:18:59;7.60;76.40
63219;DHT22;49320;52.512;13.448;2022-12-07T16:21:25;7.60;76.10
63219;DHT22;49320;52.512;13.448;2022-12-07T16:23:52;7.60;76.70
63219;DHT22;49320;52.512;13.448;2022-12-07T16:26:21;7.50;75.70
63219;DHT22;49320;52.512;13.448;2022-12-07T16:28:49;7.50;75.50
63219;DHT22;49320;52.512;13.448;2022-12-07T16:31:19;7.40;75.50
63219;DHT22;49320;52.512;13.448;2022-12-07T16:33:49;7.40;75.50
63219;DHT22;49320;52.512;13.448;2022-12-07T16:36:17;7.40;75.50
63219;DHT22;49320;52.512;13.448;2022-12-07T16:39:05;7.40;75.40
63219;DHT22;49320;52.512;13.448;2022-12-07T16:41:32;7.40;75.30
63219;DHT22;49320;52.512;13.448;2022-12-07T16:44:04;7.30;75.30
63219;DHT22;49320;52.512;13.448;2022-12-07T16:46:33;7.20;75.40
63219;DHT22;49320;52.512;13.448;2022-12-07T16:49:02;7.20;76.20
63219;DHT22;49320;52.512;13.448;2022-12-07T16:51:30;7.10;75.50
63219;DHT22;49320;52.512;13.448;2022-12-07T16:53:57;7.10;75.60
63219;DHT22;49320;52.512;13.448;2022-12-07T16:56:25;7.10;75.70
63219;DHT22;49320;52.512;13.448;2022-12-07T16:58:53;7.00;75.70
63219;DHT22;49320;52.512;13.448;2022-12-07T17:01:22;7.00;75.80
63219;DHT22;49320;52.512;13.448;2022-12-07T17:03:50;6.90;75.90
63219;DHT22;49320;52.512;13.448;2022-12-07T17:06:19;6.90;75.90
63219;DHT22;49320;52.512;13.448;2022-12-07T17:08:49;6.90;75.90
63219;DHT22;49320;52.512;13.448;2022-12-07T17:11:22;6.80;76.00
63219;DHT22;49320;52.512;13.448;2022-12-07T17:13:51;6.80;76.20
63219;DHT22;49320;52.512;13.448;2022-12-07T17:16:37;6.80;76.30
63219;DHT22;49320;52.512;13.448;2022-12-07T17:19:06;6.70;76.20
63219;DHT22;49320;52.512;13.448;2022-12-07T17:21:34;6.70;76.20
63219;DHT22;49320;52.512;13.448;2022-12-07T17:24:03;6.70;76.30
63219;DHT22;49320;52.512;13.448;2022-12-07T17:26:31;6.60;76.10
63219;DHT22;49320;52.512;13.448;2022-12-07T17:29:05;6.50;76.20
63219;DHT22;49320;52.512;13.448;2022-12-07T17:31:32;6.60;76.30
63219;DHT22;49320;52.512;13.448;2022-12-07T17:34:00;6.40;76.30
63219;DHT22;49320;52.512;13.448;2022-12-07T17:36:29;6.50;76.40
63219;DHT22;49320;52.512;13.448;2022-12-07T17:38:57;6.50;76.50
63219;DHT22;49320;52.512;13.448;2022-12-07T17:41:26;6.60;76.60
63219;DHT22;49320;52.512;13.448;2022-12-07T17:44:14;6.50;76.70
63219;DHT22;49320;52.512;13.448;2022-12-07T17:46:43;6.40;76.60
63219;DHT22;49320;52.512;13.448;2022-12-07T17:49:11;6.40;76.70
63219;DHT22;49320;52.512;13.448;2022-12-07T17:51:38;6.40;76.70